King of Scandinavia — OVOL2 — position and weather

sailwx.info

Track history (hours):
 
Tides and Currents Weather Stations Pressure Air Temp Water Temp Dewpoint Dewpoint Depression Visibility Wind Speed Wind Dir Waves Ship Positions

King of Scandinavia

Ship's website: http://www.dfds.co.uk/DSW/EN/OnBoard/na/KING.htm

Last reported at 2016-Dec-09 05:33 UTC. Time now 2016-Dec-09 05:50 UTC.
Position N 52°56' E 003°38'.

Length 166 m; beam 27.6 m; draft 6.2 m.

Type: Ship. MMSI: 220449000.

Date/timePositionNaut miles runAvg speedWind from/ knotsBaromVisibWave heightAir tempDewpointWater temp
2016-Dec-09 05:33N 52°56' E 003°38'1616.0
2016-Dec-09 04:32N 53°07' E 003°18'12317.3
2016-Dec-08 21:25N 54°19' E 000°30'1618.7
2016-Dec-08 20:33N 54°28' E 000°07'1918.5
2016-Dec-08 19:33N 54°38' W 000°20'4118.2
2016-Dec-08 17:19N 54°60' W 001°20'4 5.2
2016-Dec-08 16:33N 54°59' W 001°27'0 0.0
2016-Dec-08 15:31N 54°59' W 001°27'0 0.0
2016-Dec-08 14:30N 54°59' W 001°27'0 0.0
2016-Dec-08 13:32N 54°59' W 001°27'0 0.0
2016-Dec-08 12:31N 54°59' W 001°27'0 0.0
2016-Dec-08 11:29N 54°59' W 001°27'0 0.0
2016-Dec-08 10:31N 54°59' W 001°27'0 0.0
2016-Dec-08 09:31N 54°59' W 001°27'6 5.9
2016-Dec-08 08:34N 54°59' W 001°17'5317.8
2016-Dec-08 05:33N 54°30' E 000°01'16415.7
2016-Dec-07 19:09N 52°54' E 003°45'1015.2
2016-Dec-07 18:29N 52°47' E 003°57'1415.0
2016-Dec-07 17:34N 52°38' E 004°14'1514.8
2016-Dec-07 16:34N 52°28' E 004°32'2 1.7
2016-Dec-07 15:31N 52°28' E 004°35'0 0.0
2016-Dec-07 14:31N 52°28' E 004°35'0 0.0
2016-Dec-07 13:31N 52°28' E 004°35'0 0.0
2016-Dec-07 12:28N 52°28' E 004°35'0 0.0
2016-Dec-07 11:31N 52°28' E 004°35'0 0.0
2016-Dec-07 10:31N 52°28' E 004°35'0 0.0
2016-Dec-07 09:28N 52°28' E 004°35'0 0.4
2016-Dec-07 08:34N 52°28' E 004°34'1312.9
2016-Dec-07 07:34N 52°36' E 004°18'1514.6
2016-Dec-07 06:32N 52°46' E 003°59'15717.4
2016-Dec-06 21:29N 54°20' E 000°28'1718.3
2016-Dec-06 20:34N 54°30' E 000°04'5618.4
2016-Dec-06 17:31N 54°59' W 001°19'4 0.6
2016-Dec-06 09:24N 54°59' W 001°27'4 4.7
2016-Dec-06 08:34N 55°00' W 001°20'4414.4
2016-Dec-06 05:28N 54°36' W 000°16'1516.1
2016-Dec-06 04:33N 54°29' E 000°06'16017.1
2016-Dec-05 19:12N 52°54' E 003°43'1016.2
2016-Dec-05 18:34N 52°47' E 003°56'1616.2
2016-Dec-05 17:34N 52°37' E 004°16'1414.3
2016-Dec-05 16:33N 52°28' E 004°35'0 0.2
2016-Dec-05 15:32N 52°28' E 004°35'0 0.0
2016-Dec-05 14:32N 52°28' E 004°35'0 0.0
2016-Dec-05 13:29N 52°28' E 004°35'0 0.0
2016-Dec-05 12:32N 52°28' E 004°35'0 0.0
2016-Dec-05 11:32N 52°28' E 004°35'0 0.0
2016-Dec-05 10:29N 52°28' E 004°35'0 0.0
2016-Dec-05 08:33N 52°28' E 004°35'9 9.2
2016-Dec-05 07:33N 52°32' E 004°22'1515.4
2016-Dec-05 06:33N 52°42' E 004°03'1717.0
2016-Dec-05 05:32N 52°55' E 003°42'5317.1
2016-Dec-05 02:24N 53°29' E 002°34'1817.2
2016-Dec-05 01:20N 53°41' E 002°11'7217.8
2016-Dec-04 21:17N 54°20' E 000°28'1318.0
2016-Dec-04 20:34N 54°27' E 000°09'1818.3
2016-Dec-04 19:33N 54°37' W 000°18'3918.5
2016-Dec-04 17:28N 54°58' W 001°14'7 7.9
2016-Dec-04 16:31N 54°59' W 001°27'0 0.0
2016-Dec-04 09:33N 54°59' W 001°27'1111.2
2016-Dec-04 08:34N 54°56' W 001°09'4715.3
2016-Dec-04 05:30N 54°31' W 000°00'16215.6
2016-Dec-03 19:06N 52°55' E 003°40'1015.9
2016-Dec-03 18:30N 52°49' E 003°52'1816.0
2016-Dec-03 17:23N 52°38' E 004°15'1316.1
2016-Dec-03 16:33N 52°29' E 004°31'3 2.6
2016-Dec-03 15:31N 52°28' E 004°35'0 0.0
2016-Dec-03 14:31N 52°28' E 004°35'0 0.0
2016-Dec-03 12:31N 52°28' E 004°35'0 0.0
2016-Dec-03 11:31N 52°28' E 004°35'0 0.0
2016-Dec-03 10:31N 52°28' E 004°35'0 0.0
2016-Dec-03 09:31N 52°28' E 004°35'0 0.2
2016-Dec-03 08:34N 52°28' E 004°35'1413.5
2016-Dec-03 07:33N 52°36' E 004°17'17217.2
2016-Dec-02 21:33N 54°20' E 000°27'1817.5
2016-Dec-02 20:33N 54°30' E 000°02'5418.1
2016-Dec-02 17:33N 54°59' W 001°18'5 5.2
2016-Dec-02 16:33N 54°59' W 001°27'0 0.0
2016-Dec-02 15:20N 54°59' W 001°27'0 0.0
2016-Dec-02 09:07N 54°59' W 001°27'3 4.8
2016-Dec-02 08:33N 55°01' W 001°23'4916.2
2016-Dec-02 05:33N 54°35' W 000°11'1615.9
2016-Dec-02 04:33N 54°26' E 000°11'16716.5
2016-Dec-01 18:25N 52°46' E 003°57'1214.3
2016-Dec-01 17:34N 52°38' E 004°12'1514.8
2016-Dec-01 16:34N 52°29' E 004°31'3 2.8
2016-Dec-01 15:32N 52°28' E 004°35'0 0.0
2016-Dec-01 14:32N 52°28' E 004°35'0 0.0
2016-Dec-01 13:29N 52°28' E 004°35'0 0.0
2016-Dec-01 12:32N 52°28' E 004°35'0 0.0
2016-Dec-01 11:32N 52°28' E 004°35'0 0.0
2016-Dec-01 10:32N 52°28' E 004°35'0 0.0
2016-Dec-01 09:32N 52°28' E 004°35'0 0.1
2016-Dec-01 08:33N 52°28' E 004°35'1111.2
2016-Dec-01 07:33N 52°34' E 004°20'1817.2
2016-Dec-01 06:32N 52°47' E 003°59'1917.7
2016-Dec-01 05:28N 52°59' E 003°36'13717.1
2016-Nov-30 21:28N 54°19' E 000°29'1617.4
2016-Nov-30 20:34N 54°28' E 000°07'1817.8
2016-Nov-30 19:33N 54°38' W 000°19'4118.5
2016-Nov-30 17:21N 54°59' W 001°19'5 5.8
2016-Nov-30 16:33N 54°59' W 001°27'0 0.0
2016-Nov-30 15:31N 54°59' W 001°27'0 0.0
2016-Nov-30 14:25N 54°59' W 001°27'0 0.0
2016-Nov-30 13:13N 54°59' W 001°27'0 0.0
2016-Nov-30 11:19N 54°59' W 001°27'0 0.0
2016-Nov-30 10:16N 54°59' W 001°27'0 0.0
2016-Nov-30 09:31N 54°59' W 001°27'3 3.5
2016-Nov-30 08:33N 55°01' W 001°22'4815.9
2016-Nov-30 05:33N 54°35' W 000°12'1716.6
2016-Nov-30 04:33N 54°26' E 000°12'17116.6
2016-Nov-29 18:18N 52°44' E 004°02'1115.6
2016-Nov-29 17:33N 52°36' E 004°17'1413.9
2016-Nov-29 16:33N 52°28' E 004°35'0 0.1
2016-Nov-29 15:25N 52°28' E 004°35'0 0.0
2016-Nov-29 14:25N 52°28' E 004°35'0 0.0
2016-Nov-29 13:31N 52°28' E 004°35'0 0.0
2016-Nov-29 12:31N 52°28' E 004°35'0 0.0
2016-Nov-29 11:31N 52°28' E 004°35'0 0.0
2016-Nov-29 10:31N 52°28' E 004°35'0 0.0
2016-Nov-29 09:31N 52°28' E 004°35'0 0.1
2016-Nov-29 08:34N 52°28' E 004°35'1111.4
2016-Nov-29 07:34N 52°34' E 004°20'1615.8
2016-Nov-29 06:33N 52°44' E 003°60'  
Track history (hours):
 
Tides and Currents Weather Stations Pressure Air Temp Water Temp Dewpoint Dewpoint Depression Visibility Wind Speed Wind Dir Waves Ship Positions

King of Scandinavia

Ship's website: http://www.dfds.co.uk/DSW/EN/OnBoard/na/KING.htm

Last reported at 2016-Dec-09 05:33 UTC. Time now 2016-Dec-09 05:50 UTC.
Position N 52°56' E 003°38'.

Length 166 m; beam 27.6 m; draft 6.2 m.

Type: Ship. MMSI: 220449000.

Date/timePositionNaut miles runAvg speedWind from/ knotsBaromVisibWave heightAir tempDewpointWater temp
2016-Dec-09 05:33N 52°56' E 003°38'1616.0
2016-Dec-09 04:32N 53°07' E 003°18'12317.3
2016-Dec-08 21:25N 54°19' E 000°30'1618.7
2016-Dec-08 20:33N 54°28' E 000°07'1918.5
2016-Dec-08 19:33N 54°38' W 000°20'4118.2
2016-Dec-08 17:19N 54°60' W 001°20'4 5.2
2016-Dec-08 16:33N 54°59' W 001°27'0 0.0
2016-Dec-08 15:31N 54°59' W 001°27'0 0.0
2016-Dec-08 14:30N 54°59' W 001°27'0 0.0
2016-Dec-08 13:32N 54°59' W 001°27'0 0.0
2016-Dec-08 12:31N 54°59' W 001°27'0 0.0
2016-Dec-08 11:29N 54°59' W 001°27'0 0.0
2016-Dec-08 10:31N 54°59' W 001°27'0 0.0
2016-Dec-08 09:31N 54°59' W 001°27'6 5.9
2016-Dec-08 08:34N 54°59' W 001°17'5317.8
2016-Dec-08 05:33N 54°30' E 000°01'16415.7
2016-Dec-07 19:09N 52°54' E 003°45'1015.2
2016-Dec-07 18:29N 52°47' E 003°57'1415.0
2016-Dec-07 17:34N 52°38' E 004°14'1514.8
2016-Dec-07 16:34N 52°28' E 004°32'2 1.7
2016-Dec-07 15:31N 52°28' E 004°35'0 0.0
2016-Dec-07 14:31N 52°28' E 004°35'0 0.0
2016-Dec-07 13:31N 52°28' E 004°35'0 0.0
2016-Dec-07 12:28N 52°28' E 004°35'0 0.0
2016-Dec-07 11:31N 52°28' E 004°35'0 0.0
2016-Dec-07 10:31N 52°28' E 004°35'0 0.0
2016-Dec-07 09:28N 52°28' E 004°35'0 0.4
2016-Dec-07 08:34N 52°28' E 004°34'1312.9
2016-Dec-07 07:34N 52°36' E 004°18'1514.6
2016-Dec-07 06:32N 52°46' E 003°59'15717.4
2016-Dec-06 21:29N 54°20' E 000°28'1718.3
2016-Dec-06 20:34N 54°30' E 000°04'5618.4
2016-Dec-06 17:31N 54°59' W 001°19'4 0.6
2016-Dec-06 09:24N 54°59' W 001°27'4 4.7
2016-Dec-06 08:34N 55°00' W 001°20'4414.4
2016-Dec-06 05:28N 54°36' W 000°16'1516.1
2016-Dec-06 04:33N 54°29' E 000°06'16017.1
2016-Dec-05 19:12N 52°54' E 003°43'1016.2
2016-Dec-05 18:34N 52°47' E 003°56'1616.2
2016-Dec-05 17:34N 52°37' E 004°16'1414.3
2016-Dec-05 16:33N 52°28' E 004°35'0 0.2
2016-Dec-05 15:32N 52°28' E 004°35'0 0.0
2016-Dec-05 14:32N 52°28' E 004°35'0 0.0
2016-Dec-05 13:29N 52°28' E 004°35'0 0.0
2016-Dec-05 12:32N 52°28' E 004°35'0 0.0
2016-Dec-05 11:32N 52°28' E 004°35'0 0.0
2016-Dec-05 10:29N 52°28' E 004°35'0 0.0
2016-Dec-05 08:33N 52°28' E 004°35'9 9.2
2016-Dec-05 07:33N 52°32' E 004°22'1515.4
2016-Dec-05 06:33N 52°42' E 004°03'1717.0
2016-Dec-05 05:32N 52°55' E 003°42'5317.1
2016-Dec-05 02:24N 53°29' E 002°34'1817.2
2016-Dec-05 01:20N 53°41' E 002°11'7217.8
2016-Dec-04 21:17N 54°20' E 000°28'1318.0
2016-Dec-04 20:34N 54°27' E 000°09'1818.3
2016-Dec-04 19:33N 54°37' W 000°18'3918.5
2016-Dec-04 17:28N 54°58' W 001°14'7 7.9
2016-Dec-04 16:31N 54°59' W 001°27'0 0.0
2016-Dec-04 09:33N 54°59' W 001°27'1111.2
2016-Dec-04 08:34N 54°56' W 001°09'4715.3
2016-Dec-04 05:30N 54°31' W 000°00'16215.6
2016-Dec-03 19:06N 52°55' E 003°40'1015.9
2016-Dec-03 18:30N 52°49' E 003°52'1816.0
2016-Dec-03 17:23N 52°38' E 004°15'1316.1
2016-Dec-03 16:33N 52°29' E 004°31'3 2.6
2016-Dec-03 15:31N 52°28' E 004°35'0 0.0
2016-Dec-03 14:31N 52°28' E 004°35'0 0.0
2016-Dec-03 12:31N 52°28' E 004°35'0 0.0
2016-Dec-03 11:31N 52°28' E 004°35'0 0.0
2016-Dec-03 10:31N 52°28' E 004°35'0 0.0
2016-Dec-03 09:31N 52°28' E 004°35'0 0.2
2016-Dec-03 08:34N 52°28' E 004°35'1413.5
2016-Dec-03 07:33N 52°36' E 004°17'17217.2
2016-Dec-02 21:33N 54°20' E 000°27'1817.5
2016-Dec-02 20:33N 54°30' E 000°02'5418.1
2016-Dec-02 17:33N 54°59' W 001°18'5 5.2
2016-Dec-02 16:33N 54°59' W 001°27'0 0.0
2016-Dec-02 15:20N 54°59' W 001°27'0 0.0
2016-Dec-02 09:07N 54°59' W 001°27'3 4.8
2016-Dec-02 08:33N 55°01' W 001°23'4916.2
2016-Dec-02 05:33N 54°35' W 000°11'1615.9
2016-Dec-02 04:33N 54°26' E 000°11'16716.5
2016-Dec-01 18:25N 52°46' E 003°57'1214.3
2016-Dec-01 17:34N 52°38' E 004°12'1514.8
2016-Dec-01 16:34N 52°29' E 004°31'3 2.8
2016-Dec-01 15:32N 52°28' E 004°35'0 0.0
2016-Dec-01 14:32N 52°28' E 004°35'0 0.0
2016-Dec-01 13:29N 52°28' E 004°35'0 0.0
2016-Dec-01 12:32N 52°28' E 004°35'0 0.0
2016-Dec-01 11:32N 52°28' E 004°35'0 0.0
2016-Dec-01 10:32N 52°28' E 004°35'0 0.0
2016-Dec-01 09:32N 52°28' E 004°35'0 0.1
2016-Dec-01 08:33N 52°28' E 004°35'1111.2
2016-Dec-01 07:33N 52°34' E 004°20'1817.2
2016-Dec-01 06:32N 52°47' E 003°59'1917.7
2016-Dec-01 05:28N 52°59' E 003°36'13717.1
2016-Nov-30 21:28N 54°19' E 000°29'1617.4
2016-Nov-30 20:34N 54°28' E 000°07'1817.8
2016-Nov-30 19:33N 54°38' W 000°19'4118.5
2016-Nov-30 17:21N 54°59' W 001°19'5 5.8
2016-Nov-30 16:33N 54°59' W 001°27'0 0.0
2016-Nov-30 15:31N 54°59' W 001°27'0 0.0
2016-Nov-30 14:25N 54°59' W 001°27'0 0.0
2016-Nov-30 13:13N 54°59' W 001°27'0 0.0
2016-Nov-30 11:19N 54°59' W 001°27'0 0.0
2016-Nov-30 10:16N 54°59' W 001°27'0 0.0
2016-Nov-30 09:31N 54°59' W 001°27'3 3.5
2016-Nov-30 08:33N 55°01' W 001°22'4815.9
2016-Nov-30 05:33N 54°35' W 000°12'1716.6
2016-Nov-30 04:33N 54°26' E 000°12'17116.6
2016-Nov-29 18:18N 52°44' E 004°02'1115.6
2016-Nov-29 17:33N 52°36' E 004°17'1413.9
2016-Nov-29 16:33N 52°28' E 004°35'0 0.1
2016-Nov-29 15:25N 52°28' E 004°35'0 0.0
2016-Nov-29 14:25N 52°28' E 004°35'0 0.0
2016-Nov-29 13:31N 52°28' E 004°35'0 0.0
2016-Nov-29 12:31N 52°28' E 004°35'0 0.0
2016-Nov-29 11:31N 52°28' E 004°35'0 0.0
2016-Nov-29 10:31N 52°28' E 004°35'0 0.0
2016-Nov-29 09:31N 52°28' E 004°35'0 0.1
2016-Nov-29 08:34N 52°28' E 004°35'1111.4
2016-Nov-29 07:34N 52°34' E 004°20'1615.8
2016-Nov-29 06:33N 52°44' E 003°60'  

Dump ship's entire track history